Cedar Hill, Texas
Current Conditions -  °F | °C
As of 6:53 AM on Thursday 23 Oct 2014 (Local Time) from KRBD Reporting Station
Overcast Overcast  
Wind Chill: 64°   Ceiling: 7500
Heat Index: 64°   Visibility: 10mi
Dew Point: 54°   Wind: 3mph
Humidity: 70%   Direction: 140°SE
Pressure: 30.13"   Gusts: NA
Location:  32.59°N, 96.95°W
Report Text: KRBD 231153Z 14003KT 10SM OVC075 18/12 A3013 RMK AO2 SLP197 60000 T01780122 10206 20178 53006
Loading
Personal Weather Stations






























Interactive Weather Map
Tropical Storm Tracking
New forecast layout! Learn more

10-Day Weather Forecast

Advertisements
Track Severe Weather on mobile